sensor_id;sensor_type;location;lat;lon;timestamp;P1;durP1;ratioP1;P2;durP2;ratioP2
21917;SDS011;11123;49.882;8.662;2022-08-21T00:00:40;6.45;;;3.63;;
21917;SDS011;11123;49.882;8.662;2022-08-21T00:03:10;10.23;;;4.18;;
21917;SDS011;11123;49.882;8.662;2022-08-21T00:05:40;8.18;;;3.80;;
21917;SDS011;11123;49.882;8.662;2022-08-21T00:08:11;7.57;;;3.58;;
21917;SDS011;11123;49.882;8.662;2022-08-21T00:10:40;6.93;;;3.92;;
21917;SDS011;11123;49.882;8.662;2022-08-21T00:13:09;6.72;;;3.60;;
21917;SDS011;11123;49.882;8.662;2022-08-21T00:15:45;7.22;;;3.80;;
21917;SDS011;11123;49.882;8.662;2022-08-21T00:18:14;7.32;;;3.80;;
21917;SDS011;11123;49.882;8.662;2022-08-21T00:20:44;7.28;;;3.97;;
21917;SDS011;11123;49.882;8.662;2022-08-21T00:23:13;6.68;;;3.53;;
21917;SDS011;11123;49.882;8.662;2022-08-21T00:25:44;7.05;;;3.83;;
21917;SDS011;11123;49.882;8.662;2022-08-21T00:28:15;10.05;;;3.83;;
21917;SDS011;11123;49.882;8.662;2022-08-21T00:30:46;6.40;;;3.53;;
21917;SDS011;11123;49.882;8.662;2022-08-21T00:33:18;8.05;;;3.63;;
21917;SDS011;11123;49.882;8.662;2022-08-21T00:35:47;6.20;;;3.88;;
21917;SDS011;11123;49.882;8.662;2022-08-21T00:38:15;7.93;;;3.72;;
21917;SDS011;11123;49.882;8.662;2022-08-21T00:40:45;7.80;;;3.97;;
21917;SDS011;11123;49.882;8.662;2022-08-21T00:43:17;7.82;;;4.00;;
21917;SDS011;11123;49.882;8.662;2022-08-21T00:45:48;6.38;;;3.47;;
21917;SDS011;11123;49.882;8.662;2022-08-21T00:48:17;7.85;;;3.97;;
21917;SDS011;11123;49.882;8.662;2022-08-21T00:50:48;13.13;;;4.10;;
21917;SDS011;11123;49.882;8.662;2022-08-21T00:53:25;6.65;;;3.58;;
21917;SDS011;11123;49.882;8.662;2022-08-21T00:55:55;8.40;;;4.13;;
21917;SDS011;11123;49.882;8.662;2022-08-21T00:58:24;8.50;;;4.22;;
21917;SDS011;11123;49.882;8.662;2022-08-21T01:00:56;8.85;;;4.40;;
21917;SDS011;11123;49.882;8.662;2022-08-21T01:03:33;8.00;;;4.30;;
21917;SDS011;11123;49.882;8.662;2022-08-21T01:06:04;8.63;;;3.72;;
21917;SDS011;11123;49.882;8.662;2022-08-21T01:08:33;6.65;;;3.90;;
21917;SDS011;11123;49.882;8.662;2022-08-21T01:11:02;7.70;;;3.97;;
21917;SDS011;11123;49.882;8.662;2022-08-21T01:13:32;6.18;;;3.90;;
21917;SDS011;11123;49.882;8.662;2022-08-21T01:16:08;6.93;;;3.65;;
21917;SDS011;11123;49.882;8.662;2022-08-21T01:18:37;7.22;;;4.03;;
21917;SDS011;11123;49.882;8.662;2022-08-21T01:21:08;8.10;;;4.18;;
21917;SDS011;11123;49.882;8.662;2022-08-21T01:23:40;6.85;;;4.15;;
21917;SDS011;11123;49.882;8.662;2022-08-21T01:26:12;7.93;;;4.03;;
21917;SDS011;11123;49.882;8.662;2022-08-21T01:28:44;10.57;;;4.68;;
21917;SDS011;11123;49.882;8.662;2022-08-21T01:31:17;9.38;;;4.53;;
21917;SDS011;11123;49.882;8.662;2022-08-21T01:33:52;7.55;;;4.15;;
21917;SDS011;11123;49.882;8.662;2022-08-21T01:36:23;6.65;;;3.80;;
21917;SDS011;11123;49.882;8.662;2022-08-21T01:38:51;10.23;;;4.68;;
21917;SDS011;11123;49.882;8.662;2022-08-21T01:41:25;8.20;;;4.15;;
21917;SDS011;11123;49.882;8.662;2022-08-21T01:43:53;6.63;;;4.20;;
21917;SDS011;11123;49.882;8.662;2022-08-21T01:46:23;7.03;;;4.03;;
21917;SDS011;11123;49.882;8.662;2022-08-21T01:48:51;9.52;;;4.22;;
21917;SDS011;11123;49.882;8.662;2022-08-21T01:51:20;9.43;;;4.05;;
21917;SDS011;11123;49.882;8.662;2022-08-21T01:53:50;9.27;;;4.18;;
21917;SDS011;11123;49.882;8.662;2022-08-21T01:56:18;6.55;;;4.00;;
21917;SDS011;11123;49.882;8.662;2022-08-21T01:58:47;8.45;;;4.35;;
21917;SDS011;11123;49.882;8.662;2022-08-21T02:01:15;7.28;;;3.88;;
21917;SDS011;11123;49.882;8.662;2022-08-21T02:03:45;7.15;;;3.95;;
21917;SDS011;11123;49.882;8.662;2022-08-21T02:06:16;8.45;;;4.00;;
21917;SDS011;11123;49.882;8.662;2022-08-21T02:08:45;7.88;;;4.10;;
21917;SDS011;11123;49.882;8.662;2022-08-21T02:11:15;7.55;;;4.00;;
21917;SDS011;11123;49.882;8.662;2022-08-21T02:13:44;9.93;;;4.10;;
21917;SDS011;11123;49.882;8.662;2022-08-21T02:16:12;8.95;;;4.60;;
21917;SDS011;11123;49.882;8.662;2022-08-21T02:18:45;7.32;;;4.05;;
21917;SDS011;11123;49.882;8.662;2022-08-21T02:21:13;8.45;;;3.90;;
21917;SDS011;11123;49.882;8.662;2022-08-21T02:23:42;8.68;;;4.22;;
21917;SDS011;11123;49.882;8.662;2022-08-21T02:26:11;5.93;;;3.97;;
21917;SDS011;11123;49.882;8.662;2022-08-21T02:28:41;6.43;;;3.50;;
21917;SDS011;11123;49.882;8.662;2022-08-21T02:31:09;7.78;;;4.07;;
21917;SDS011;11123;49.882;8.662;2022-08-21T02:33:38;9.13;;;4.00;;
21917;SDS011;11123;49.882;8.662;2022-08-21T02:36:06;8.73;;;4.68;;
21917;SDS011;11123;49.882;8.662;2022-08-21T02:38:36;6.63;;;3.78;;
21917;SDS011;11123;49.882;8.662;2022-08-21T02:41:07;7.30;;;3.67;;
21917;SDS011;11123;49.882;8.662;2022-08-21T02:43:38;8.52;;;4.00;;
21917;SDS011;11123;49.882;8.662;2022-08-21T02:46:09;6.93;;;3.97;;
21917;SDS011;11123;49.882;8.662;2022-08-21T02:48:39;8.57;;;4.22;;
21917;SDS011;11123;49.882;8.662;2022-08-21T02:51:09;7.32;;;3.78;;
21917;SDS011;11123;49.882;8.662;2022-08-21T02:53:39;7.95;;;3.95;;
21917;SDS011;11123;49.882;8.662;2022-08-21T02:56:09;7.05;;;4.10;;
21917;SDS011;11123;49.882;8.662;2022-08-21T02:58:43;11.93;;;3.92;;
21917;SDS011;11123;49.882;8.662;2022-08-21T03:01:14;8.23;;;3.67;;
21917;SDS011;11123;49.882;8.662;2022-08-21T03:03:43;6.95;;;4.22;;
21917;SDS011;11123;49.882;8.662;2022-08-21T03:06:14;8.50;;;3.88;;
21917;SDS011;11123;49.882;8.662;2022-08-21T03:08:44;9.02;;;4.32;;
21917;SDS011;11123;49.882;8.662;2022-08-21T03:11:13;6.38;;;3.83;;
21917;SDS011;11123;49.882;8.662;2022-08-21T03:13:43;7.95;;;3.95;;
21917;SDS011;11123;49.882;8.662;2022-08-21T03:16:11;9.10;;;4.32;;
21917;SDS011;11123;49.882;8.662;2022-08-21T03:18:39;6.88;;;3.92;;
21917;SDS011;11123;49.882;8.662;2022-08-21T03:21:08;6.78;;;3.80;;
21917;SDS011;11123;49.882;8.662;2022-08-21T03:23:37;7.57;;;3.90;;
21917;SDS011;11123;49.882;8.662;2022-08-21T03:26:06;12.40;;;3.72;;
21917;SDS011;11123;49.882;8.662;2022-08-21T03:28:34;9.02;;;3.83;;
21917;SDS011;11123;49.882;8.662;2022-08-21T03:31:04;9.45;;;4.30;;
21917;SDS011;11123;49.882;8.662;2022-08-21T03:33:32;8.02;;;3.85;;
21917;SDS011;11123;49.882;8.662;2022-08-21T03:36:02;8.18;;;4.30;;
21917;SDS011;11123;49.882;8.662;2022-08-21T03:38:32;9.68;;;3.78;;
21917;SDS011;11123;49.882;8.662;2022-08-21T03:41:02;7.22;;;4.18;;
21917;SDS011;11123;49.882;8.662;2022-08-21T03:43:31;8.55;;;4.20;;
21917;SDS011;11123;49.882;8.662;2022-08-21T03:46:00;10.02;;;3.78;;
21917;SDS011;11123;49.882;8.662;2022-08-21T03:48:31;8.20;;;3.55;;
21917;SDS011;11123;49.882;8.662;2022-08-21T03:51:00;6.88;;;3.70;;
21917;SDS011;11123;49.882;8.662;2022-08-21T03:53:29;8.07;;;3.50;;
21917;SDS011;11123;49.882;8.662;2022-08-21T03:55:57;8.40;;;3.67;;
21917;SDS011;11123;49.882;8.662;2022-08-21T03:58:26;7.75;;;4.20;;
21917;SDS011;11123;49.882;8.662;2022-08-21T04:00:56;7.00;;;3.63;;
21917;SDS011;11123;49.882;8.662;2022-08-21T04:03:26;7.93;;;4.00;;
21917;SDS011;11123;49.882;8.662;2022-08-21T04:05:57;7.43;;;3.92;;
21917;SDS011;11123;49.882;8.662;2022-08-21T04:08:25;12.90;;;4.38;;
21917;SDS011;11123;49.882;8.662;2022-08-21T04:10:54;8.52;;;3.75;;
21917;SDS011;11123;49.882;8.662;2022-08-21T04:13:24;8.07;;;3.90;;
21917;SDS011;11123;49.882;8.662;2022-08-21T04:15:54;8.13;;;3.97;;
21917;SDS011;11123;49.882;8.662;2022-08-21T04:18:24;6.47;;;3.78;;
21917;SDS011;11123;49.882;8.662;2022-08-21T04:20:52;7.43;;;3.97;;
21917;SDS011;11123;49.882;8.662;2022-08-21T04:23:25;7.55;;;3.88;;
21917;SDS011;11123;49.882;8.662;2022-08-21T04:25:54;6.80;;;3.80;;
21917;SDS011;11123;49.882;8.662;2022-08-21T04:28:24;9.63;;;4.05;;
21917;SDS011;11123;49.882;8.662;2022-08-21T04:30:56;8.32;;;3.85;;
21917;SDS011;11123;49.882;8.662;2022-08-21T04:33:24;7.80;;;3.97;;
21917;SDS011;11123;49.882;8.662;2022-08-21T04:35:53;5.78;;;3.67;;
21917;SDS011;11123;49.882;8.662;2022-08-21T04:38:21;7.97;;;3.33;;
21917;SDS011;11123;49.882;8.662;2022-08-21T04:40:51;6.15;;;3.47;;
21917;SDS011;11123;49.882;8.662;2022-08-21T04:43:20;8.38;;;3.75;;
21917;SDS011;11123;49.882;8.662;2022-08-21T04:45:50;10.20;;;3.83;;
21917;SDS011;11123;49.882;8.662;2022-08-21T04:48:20;8.18;;;3.95;;
21917;SDS011;11123;49.882;8.662;2022-08-21T04:50:51;8.20;;;4.10;;
21917;SDS011;11123;49.882;8.662;2022-08-21T04:53:24;9.05;;;3.75;;
21917;SDS011;11123;49.882;8.662;2022-08-21T04:56:03;11.25;;;4.22;;
21917;SDS011;11123;49.882;8.662;2022-08-21T04:58:34;7.38;;;3.53;;
21917;SDS011;11123;49.882;8.662;2022-08-21T05:01:04;9.18;;;3.88;;
21917;SDS011;11123;49.882;8.662;2022-08-21T05:03:34;9.43;;;3.90;;
21917;SDS011;11123;49.882;8.662;2022-08-21T05:06:05;8.77;;;4.03;;
21917;SDS011;11123;49.882;8.662;2022-08-21T05:08:36;7.53;;;3.60;;
21917;SDS011;11123;49.882;8.662;2022-08-21T05:11:07;8.43;;;3.45;;
21917;SDS011;11123;49.882;8.662;2022-08-21T05:13:35;10.50;;;3.80;;
21917;SDS011;11123;49.882;8.662;2022-08-21T05:16:07;7.25;;;3.42;;
21917;SDS011;11123;49.882;8.662;2022-08-21T05:18:36;10.63;;;3.33;;
21917;SDS011;11123;49.882;8.662;2022-08-21T05:21:04;5.88;;;3.22;;
21917;SDS011;11123;49.882;8.662;2022-08-21T05:23:32;10.00;;;4.00;;
21917;SDS011;11123;49.882;8.662;2022-08-21T05:26:00;8.90;;;3.83;;
21917;SDS011;11123;49.882;8.662;2022-08-21T05:28:32;6.57;;;3.33;;
21917;SDS011;11123;49.882;8.662;2022-08-21T05:31:01;6.40;;;3.33;;
21917;SDS011;11123;49.882;8.662;2022-08-21T05:33:29;9.75;;;3.85;;
21917;SDS011;11123;49.882;8.662;2022-08-21T05:36:01;7.30;;;3.00;;
21917;SDS011;11123;49.882;8.662;2022-08-21T05:38:29;7.55;;;3.65;;
21917;SDS011;11123;49.882;8.662;2022-08-21T05:40:58;8.88;;;3.50;;
21917;SDS011;11123;49.882;8.662;2022-08-21T05:43:26;8.40;;;3.55;;
21917;SDS011;11123;49.882;8.662;2022-08-21T05:45:55;9.30;;;3.60;;
21917;SDS011;11123;49.882;8.662;2022-08-21T05:48:24;7.82;;;3.45;;
21917;SDS011;11123;49.882;8.662;2022-08-21T05:50:52;5.22;;;2.83;;
21917;SDS011;11123;49.882;8.662;2022-08-21T05:53:21;6.53;;;3.40;;
21917;SDS011;11123;49.882;8.662;2022-08-21T05:55:50;7.85;;;3.20;;
21917;SDS011;11123;49.882;8.662;2022-08-21T05:58:20;6.85;;;3.33;;
21917;SDS011;11123;49.882;8.662;2022-08-21T06:00:49;6.68;;;3.00;;
21917;SDS011;11123;49.882;8.662;2022-08-21T06:03:21;7.93;;;3.28;;
21917;SDS011;11123;49.882;8.662;2022-08-21T06:05:51;7.30;;;3.30;;
21917;SDS011;11123;49.882;8.662;2022-08-21T06:08:20;9.93;;;3.80;;
21917;SDS011;11123;49.882;8.662;2022-08-21T06:10:50;7.28;;;3.33;;
21917;SDS011;11123;49.882;8.662;2022-08-21T06:13:19;7.40;;;2.97;;
21917;SDS011;11123;49.882;8.662;2022-08-21T06:15:48;8.75;;;3.00;;
21917;SDS011;11123;49.882;8.662;2022-08-21T06:18:17;9.32;;;3.17;;
21917;SDS011;11123;49.882;8.662;2022-08-21T06:20:46;6.90;;;3.03;;
21917;SDS011;11123;49.882;8.662;2022-08-21T06:23:15;6.70;;;3.20;;
21917;SDS011;11123;49.882;8.662;2022-08-21T06:25:43;7.35;;;3.30;;
21917;SDS011;11123;49.882;8.662;2022-08-21T06:28:11;9.27;;;3.65;;
21917;SDS011;11123;49.882;8.662;2022-08-21T06:30:39;6.57;;;2.75;;
21917;SDS011;11123;49.882;8.662;2022-08-21T06:33:08;8.25;;;4.15;;
21917;SDS011;11123;49.882;8.662;2022-08-21T06:35:36;6.22;;;2.95;;
21917;SDS011;11123;49.882;8.662;2022-08-21T06:38:08;7.90;;;2.90;;
21917;SDS011;11123;49.882;8.662;2022-08-21T06:40:37;10.70;;;3.95;;
21917;SDS011;11123;49.882;8.662;2022-08-21T06:43:13;8.18;;;3.10;;
21917;SDS011;11123;49.882;8.662;2022-08-21T06:45:43;9.52;;;3.22;;
21917;SDS011;11123;49.882;8.662;2022-08-21T06:48:12;7.70;;;3.40;;
21917;SDS011;11123;49.882;8.662;2022-08-21T06:50:45;9.15;;;3.38;;
21917;SDS011;11123;49.882;8.662;2022-08-21T06:53:16;11.13;;;3.40;;
21917;SDS011;11123;49.882;8.662;2022-08-21T06:55:46;9.23;;;3.90;;
21917;SDS011;11123;49.882;8.662;2022-08-21T06:58:15;6.88;;;3.20;;
21917;SDS011;11123;49.882;8.662;2022-08-21T07:00:44;9.63;;;3.22;;
21917;SDS011;11123;49.882;8.662;2022-08-21T07:03:16;9.35;;;3.53;;
21917;SDS011;11123;49.882;8.662;2022-08-21T07:05:46;10.18;;;3.80;;
21917;SDS011;11123;49.882;8.662;2022-08-21T07:08:16;7.20;;;3.85;;
21917;SDS011;11123;49.882;8.662;2022-08-21T07:10:44;9.82;;;3.90;;
21917;SDS011;11123;49.882;8.662;2022-08-21T07:13:14;8.70;;;3.92;;
21917;SDS011;11123;49.882;8.662;2022-08-21T07:15:43;9.30;;;3.55;;
21917;SDS011;11123;49.882;8.662;2022-08-21T07:18:12;8.50;;;4.05;;
21917;SDS011;11123;49.882;8.662;2022-08-21T07:20:41;10.82;;;3.83;;
21917;SDS011;11123;49.882;8.662;2022-08-21T07:23:10;8.18;;;3.25;;
21917;SDS011;11123;49.882;8.662;2022-08-21T07:25:48;7.25;;;3.42;;
21917;SDS011;11123;49.882;8.662;2022-08-21T07:28:16;8.32;;;3.92;;
21917;SDS011;11123;49.882;8.662;2022-08-21T07:30:45;8.98;;;3.38;;
21917;SDS011;11123;49.882;8.662;2022-08-21T07:33:13;8.45;;;3.75;;
21917;SDS011;11123;49.882;8.662;2022-08-21T07:35:41;9.20;;;3.70;;
21917;SDS011;11123;49.882;8.662;2022-08-21T07:38:10;9.02;;;3.75;;
21917;SDS011;11123;49.882;8.662;2022-08-21T07:40:38;10.07;;;4.13;;
21917;SDS011;11123;49.882;8.662;2022-08-21T07:43:07;9.25;;;4.07;;
21917;SDS011;11123;49.882;8.662;2022-08-21T07:45:36;8.70;;;4.03;;
21917;SDS011;11123;49.882;8.662;2022-08-21T07:48:04;9.57;;;4.20;;
21917;SDS011;11123;49.882;8.662;2022-08-21T07:50:33;10.93;;;4.32;;
21917;SDS011;11123;49.882;8.662;2022-08-21T07:53:01;11.13;;;4.70;;
21917;SDS011;11123;49.882;8.662;2022-08-21T07:55:30;7.15;;;4.50;;
21917;SDS011;11123;49.882;8.662;2022-08-21T07:57:58;8.77;;;4.38;;
21917;SDS011;11123;49.882;8.662;2022-08-21T08:00:28;8.07;;;4.60;;
21917;SDS011;11123;49.882;8.662;2022-08-21T08:02:57;10.77;;;4.63;;
21917;SDS011;11123;49.882;8.662;2022-08-21T08:05:27;9.02;;;4.53;;
21917;SDS011;11123;49.882;8.662;2022-08-21T08:07:57;6.95;;;4.15;;
21917;SDS011;11123;49.882;8.662;2022-08-21T08:10:26;9.10;;;5.30;;
21917;SDS011;11123;49.882;8.662;2022-08-21T08:12:54;11.35;;;5.00;;
21917;SDS011;11123;49.882;8.662;2022-08-21T08:15:24;12.00;;;4.95;;
21917;SDS011;11123;49.882;8.662;2022-08-21T08:17:55;8.02;;;4.60;;
21917;SDS011;11123;49.882;8.662;2022-08-21T08:20:24;9.52;;;4.40;;
21917;SDS011;11123;49.882;8.662;2022-08-21T08:22:53;15.52;;;4.78;;
21917;SDS011;11123;49.882;8.662;2022-08-21T08:25:23;8.15;;;4.38;;
21917;SDS011;11123;49.882;8.662;2022-08-21T08:27:52;7.72;;;4.28;;
21917;SDS011;11123;49.882;8.662;2022-08-21T08:30:21;8.77;;;4.05;;
21917;SDS011;11123;49.882;8.662;2022-08-21T08:32:50;7.20;;;4.13;;
21917;SDS011;11123;49.882;8.662;2022-08-21T08:35:20;9.43;;;4.20;;
21917;SDS011;11123;49.882;8.662;2022-08-21T08:37:50;7.47;;;4.85;;
21917;SDS011;11123;49.882;8.662;2022-08-21T08:40:22;12.27;;;5.20;;
21917;SDS011;11123;49.882;8.662;2022-08-21T08:43:03;7.65;;;4.28;;
21917;SDS011;11123;49.882;8.662;2022-08-21T08:45:34;6.55;;;3.53;;
21917;SDS011;11123;49.882;8.662;2022-08-21T08:48:06;7.68;;;3.80;;
21917;SDS011;11123;49.882;8.662;2022-08-21T08:50:46;8.95;;;4.63;;
21917;SDS011;11123;49.882;8.662;2022-08-21T08:53:17;9.00;;;4.07;;
21917;SDS011;11123;49.882;8.662;2022-08-21T08:55:50;10.43;;;5.40;;
21917;SDS011;11123;49.882;8.662;2022-08-21T08:58:20;10.68;;;4.90;;
21917;SDS011;11123;49.882;8.662;2022-08-21T09:00:52;10.32;;;4.55;;
21917;SDS011;11123;49.882;8.662;2022-08-21T09:03:23;9.68;;;5.07;;
21917;SDS011;11123;49.882;8.662;2022-08-21T09:05:54;8.95;;;4.68;;
21917;SDS011;11123;49.882;8.662;2022-08-21T09:08:30;8.73;;;4.07;;
21917;SDS011;11123;49.882;8.662;2022-08-21T09:11:17;8.25;;;5.03;;
21917;SDS011;11123;49.882;8.662;2022-08-21T09:13:56;8.02;;;4.75;;
21917;SDS011;11123;49.882;8.662;2022-08-21T09:16:34;10.20;;;4.05;;
21917;SDS011;11123;49.882;8.662;2022-08-21T09:19:13;7.28;;;3.13;;
21917;SDS011;11123;49.882;8.662;2022-08-21T09:22:03;7.53;;;3.00;;
21917;SDS011;11123;49.882;8.662;2022-08-21T09:24:43;7.97;;;3.03;;
21917;SDS011;11123;49.882;8.662;2022-08-21T09:27:21;5.90;;;2.47;;
21917;SDS011;11123;49.882;8.662;2022-08-21T09:29:52;7.65;;;2.90;;
21917;SDS011;11123;49.882;8.662;2022-08-21T09:32:24;8.02;;;3.05;;
21917;SDS011;11123;49.882;8.662;2022-08-21T09:35:04;9.25;;;2.75;;
21917;SDS011;11123;49.882;8.662;2022-08-21T09:37:45;9.40;;;2.88;;
21917;SDS011;11123;49.882;8.662;2022-08-21T09:40:19;7.43;;;3.53;;
21917;SDS011;11123;49.882;8.662;2022-08-21T09:42:57;8.15;;;3.40;;
21917;SDS011;11123;49.882;8.662;2022-08-21T09:45:27;8.43;;;3.60;;
21917;SDS011;11123;49.882;8.662;2022-08-21T09:48:09;7.80;;;3.65;;
21917;SDS011;11123;49.882;8.662;2022-08-21T09:50:39;8.60;;;3.22;;
21917;SDS011;11123;49.882;8.662;2022-08-21T09:53:19;6.72;;;3.28;;
21917;SDS011;11123;49.882;8.662;2022-08-21T09:55:49;8.20;;;2.80;;
21917;SDS011;11123;49.882;8.662;2022-08-21T09:58:38;7.57;;;2.58;;
21917;SDS011;11123;49.882;8.662;2022-08-21T10:01:12;5.78;;;2.58;;
21917;SDS011;11123;49.882;8.662;2022-08-21T10:03:42;5.95;;;2.55;;
21917;SDS011;11123;49.882;8.662;2022-08-21T10:06:21;5.20;;;2.47;;
21917;SDS011;11123;49.882;8.662;2022-08-21T10:09:04;9.95;;;3.22;;
21917;SDS011;11123;49.882;8.662;2022-08-21T10:11:39;7.47;;;2.72;;
21917;SDS011;11123;49.882;8.662;2022-08-21T10:14:14;7.95;;;2.63;;
21917;SDS011;11123;49.882;8.662;2022-08-21T10:16:54;6.28;;;2.58;;
21917;SDS011;11123;49.882;8.662;2022-08-21T10:19:32;6.03;;;2.30;;
21917;SDS011;11123;49.882;8.662;2022-08-21T10:22:12;5.75;;;2.20;;
21917;SDS011;11123;49.882;8.662;2022-08-21T10:24:53;6.00;;;2.55;;
21917;SDS011;11123;49.882;8.662;2022-08-21T10:27:30;6.35;;;2.20;;
21917;SDS011;11123;49.882;8.662;2022-08-21T10:30:06;10.95;;;2.67;;
21917;SDS011;11123;49.882;8.662;2022-08-21T10:32:42;7.53;;;2.47;;
21917;SDS011;11123;49.882;8.662;2022-08-21T10:35:28;9.93;;;2.38;;
21917;SDS011;11123;49.882;8.662;2022-08-21T10:38:02;6.15;;;2.10;;
21917;SDS011;11123;49.882;8.662;2022-08-21T10:41:21;7.25;;;2.50;;
21917;SDS011;11123;49.882;8.662;2022-08-21T10:43:59;8.10;;;2.22;;
21917;SDS011;11123;49.882;8.662;2022-08-21T10:46:37;6.63;;;2.20;;
21917;SDS011;11123;49.882;8.662;2022-08-21T10:49:15;5.45;;;2.00;;
21917;SDS011;11123;49.882;8.662;2022-08-21T10:51:51;5.57;;;2.20;;
21917;SDS011;11123;49.882;8.662;2022-08-21T10:54:31;8.70;;;2.38;;
21917;SDS011;11123;49.882;8.662;2022-08-21T10:57:07;5.35;;;2.03;;
21917;SDS011;11123;49.882;8.662;2022-08-21T10:59:42;7.68;;;2.40;;
21917;SDS011;11123;49.882;8.662;2022-08-21T11:02:17;9.15;;;2.50;;
21917;SDS011;11123;49.882;8.662;2022-08-21T11:04:51;7.78;;;2.38;;
21917;SDS011;11123;49.882;8.662;2022-08-21T11:07:26;9.07;;;2.80;;
21917;SDS011;11123;49.882;8.662;2022-08-21T11:10:03;6.15;;;2.50;;
21917;SDS011;11123;49.882;8.662;2022-08-21T11:12:39;6.75;;;2.30;;
21917;SDS011;11123;49.882;8.662;2022-08-21T11:15:14;7.00;;;2.38;;
21917;SDS011;11123;49.882;8.662;2022-08-21T11:17:58;6.70;;;2.30;;
21917;SDS011;11123;49.882;8.662;2022-08-21T11:20:33;6.25;;;2.53;;
21917;SDS011;11123;49.882;8.662;2022-08-21T11:23:07;6.70;;;2.70;;
21917;SDS011;11123;49.882;8.662;2022-08-21T11:25:42;4.88;;;2.50;;
21917;SDS011;11123;49.882;8.662;2022-08-21T11:28:17;6.00;;;2.53;;
21917;SDS011;11123;49.882;8.662;2022-08-21T11:30:52;7.10;;;2.35;;
21917;SDS011;11123;49.882;8.662;2022-08-21T11:33:33;7.22;;;2.33;;
21917;SDS011;11123;49.882;8.662;2022-08-21T11:36:14;6.38;;;2.55;;
21917;SDS011;11123;49.882;8.662;2022-08-21T11:38:50;7.25;;;2.42;;
21917;SDS011;11123;49.882;8.662;2022-08-21T11:41:27;6.32;;;2.25;;
21917;SDS011;11123;49.882;8.662;2022-08-21T11:44:06;5.13;;;2.28;;
21917;SDS011;11123;49.882;8.662;2022-08-21T11:46:44;5.57;;;2.25;;
21917;SDS011;11123;49.882;8.662;2022-08-21T11:49:29;6.38;;;2.40;;
21917;SDS011;11123;49.882;8.662;2022-08-21T11:52:12;6.57;;;2.30;;
21917;SDS011;11123;49.882;8.662;2022-08-21T11:54:45;4.85;;;1.90;;
21917;SDS011;11123;49.882;8.662;2022-08-21T11:57:18;7.40;;;2.20;;
21917;SDS011;11123;49.882;8.662;2022-08-21T11:59:53;5.93;;;2.17;;
21917;SDS011;11123;49.882;8.662;2022-08-21T12:02:28;6.28;;;2.30;;
21917;SDS011;11123;49.882;8.662;2022-08-21T12:05:00;4.88;;;2.55;;
21917;SDS011;11123;49.882;8.662;2022-08-21T12:07:36;6.05;;;2.42;;
21917;SDS011;11123;49.882;8.662;2022-08-21T12:10:07;7.30;;;2.58;;
21917;SDS011;11123;49.882;8.662;2022-08-21T12:12:40;7.15;;;2.45;;
21917;SDS011;11123;49.882;8.662;2022-08-21T12:15:16;8.52;;;2.53;;
21917;SDS011;11123;49.882;8.662;2022-08-21T12:17:55;7.38;;;2.47;;
21917;SDS011;11123;49.882;8.662;2022-08-21T12:20:33;4.70;;;2.08;;
21917;SDS011;11123;49.882;8.662;2022-08-21T12:23:16;4.15;;;2.00;;
21917;SDS011;11123;49.882;8.662;2022-08-21T12:25:59;6.63;;;2.20;;
21917;SDS011;11123;49.882;8.662;2022-08-21T12:28:47;7.53;;;2.15;;
21917;SDS011;11123;49.882;8.662;2022-08-21T12:31:19;4.10;;;2.00;;
21917;SDS011;11123;49.882;8.662;2022-08-21T12:33:53;4.55;;;2.08;;
21917;SDS011;11123;49.882;8.662;2022-08-21T12:36:25;6.00;;;2.20;;
21917;SDS011;11123;49.882;8.662;2022-08-21T12:39:04;4.50;;;1.98;;
21917;SDS011;11123;49.882;8.662;2022-08-21T12:41:43;5.68;;;2.10;;
21917;SDS011;11123;49.882;8.662;2022-08-21T12:44:20;5.53;;;2.00;;
21917;SDS011;11123;49.882;8.662;2022-08-21T12:46:56;4.85;;;2.03;;
21917;SDS011;11123;49.882;8.662;2022-08-21T12:49:28;7.18;;;2.30;;
21917;SDS011;11123;49.882;8.662;2022-08-21T12:52:03;4.95;;;1.90;;
21917;SDS011;11123;49.882;8.662;2022-08-21T12:54:37;5.43;;;2.00;;
21917;SDS011;11123;49.882;8.662;2022-08-21T12:57:08;9.15;;;2.17;;
21917;SDS011;11123;49.882;8.662;2022-08-21T12:59:45;6.93;;;1.80;;
21917;SDS011;11123;49.882;8.662;2022-08-21T13:02:16;7.25;;;2.20;;
21917;SDS011;11123;49.882;8.662;2022-08-21T13:04:47;4.75;;;1.85;;
21917;SDS011;11123;49.882;8.662;2022-08-21T13:07:19;7.15;;;1.98;;
21917;SDS011;11123;49.882;8.662;2022-08-21T13:09:53;6.97;;;2.20;;
21917;SDS011;11123;49.882;8.662;2022-08-21T13:12:24;4.85;;;1.92;;
21917;SDS011;11123;49.882;8.662;2022-08-21T13:14:58;5.85;;;2.13;;
21917;SDS011;11123;49.882;8.662;2022-08-21T13:17:36;5.18;;;1.83;;
21917;SDS011;11123;49.882;8.662;2022-08-21T13:20:09;4.07;;;1.95;;
21917;SDS011;11123;49.882;8.662;2022-08-21T13:22:48;4.57;;;2.05;;
21917;SDS011;11123;49.882;8.662;2022-08-21T13:25:18;6.40;;;1.80;;
21917;SDS011;11123;49.882;8.662;2022-08-21T13:27:56;6.75;;;2.05;;
21917;SDS011;11123;49.882;8.662;2022-08-21T13:30:26;5.88;;;2.22;;
21917;SDS011;11123;49.882;8.662;2022-08-21T13:32:57;6.25;;;1.95;;
21917;SDS011;11123;49.882;8.662;2022-08-21T13:35:28;5.72;;;2.00;;
21917;SDS011;11123;49.882;8.662;2022-08-21T13:38:02;4.35;;;1.83;;
21917;SDS011;11123;49.882;8.662;2022-08-21T13:40:38;5.68;;;2.03;;
21917;SDS011;11123;49.882;8.662;2022-08-21T13:43:13;6.75;;;2.03;;
21917;SDS011;11123;49.882;8.662;2022-08-21T13:45:47;4.43;;;1.70;;
21917;SDS011;11123;49.882;8.662;2022-08-21T13:48:18;5.55;;;2.13;;
21917;SDS011;11123;49.882;8.662;2022-08-21T13:50:47;5.35;;;1.88;;
21917;SDS011;11123;49.882;8.662;2022-08-21T13:53:20;5.07;;;1.77;;
21917;SDS011;11123;49.882;8.662;2022-08-21T13:55:50;5.50;;;2.08;;
21917;SDS011;11123;49.882;8.662;2022-08-21T13:58:25;6.13;;;2.00;;
21917;SDS011;11123;49.882;8.662;2022-08-21T14:00:55;5.38;;;1.88;;
21917;SDS011;11123;49.882;8.662;2022-08-21T14:03:32;3.75;;;1.67;;
21917;SDS011;11123;49.882;8.662;2022-08-21T14:06:10;5.15;;;1.80;;
21917;SDS011;11123;49.882;8.662;2022-08-21T14:08:39;6.32;;;1.92;;
21917;SDS011;11123;49.882;8.662;2022-08-21T14:11:10;6.13;;;1.90;;
21917;SDS011;11123;49.882;8.662;2022-08-21T14:13:42;5.55;;;1.80;;
21917;SDS011;11123;49.882;8.662;2022-08-21T14:16:13;7.15;;;2.50;;
21917;SDS011;11123;49.882;8.662;2022-08-21T14:18:46;7.32;;;1.83;;
21917;SDS011;11123;49.882;8.662;2022-08-21T14:24:10;8.32;;;2.13;;
21917;SDS011;11123;49.882;8.662;2022-08-21T14:26:46;5.97;;;1.60;;
21917;SDS011;11123;49.882;8.662;2022-08-21T14:29:19;4.68;;;1.77;;
21917;SDS011;11123;49.882;8.662;2022-08-21T14:31:50;5.25;;;2.78;;
21917;SDS011;11123;49.882;8.662;2022-08-21T14:34:23;5.78;;;2.70;;
21917;SDS011;11123;49.882;8.662;2022-08-21T14:36:56;4.32;;;1.90;;
21917;SDS011;11123;49.882;8.662;2022-08-21T14:39:24;5.03;;;2.00;;
21917;SDS011;11123;49.882;8.662;2022-08-21T14:41:52;4.93;;;1.80;;
21917;SDS011;11123;49.882;8.662;2022-08-21T14:44:21;4.55;;;1.52;;
21917;SDS011;11123;49.882;8.662;2022-08-21T14:46:49;4.53;;;1.88;;
21917;SDS011;11123;49.882;8.662;2022-08-21T14:49:24;4.60;;;1.90;;
21917;SDS011;11123;49.882;8.662;2022-08-21T14:51:54;6.03;;;1.95;;
21917;SDS011;11123;49.882;8.662;2022-08-21T14:54:25;4.63;;;1.73;;
21917;SDS011;11123;49.882;8.662;2022-08-21T14:56:58;4.35;;;1.50;;
21917;SDS011;11123;49.882;8.662;2022-08-21T14:59:27;4.97;;;1.58;;
21917;SDS011;11123;49.882;8.662;2022-08-21T15:01:56;4.45;;;1.60;;
21917;SDS011;11123;49.882;8.662;2022-08-21T15:04:26;5.13;;;1.70;;
21917;SDS011;11123;49.882;8.662;2022-08-21T15:06:54;4.07;;;1.40;;
21917;SDS011;11123;49.882;8.662;2022-08-21T15:09:22;5.32;;;1.90;;
21917;SDS011;11123;49.882;8.662;2022-08-21T15:11:51;5.75;;;1.75;;
21917;SDS011;11123;49.882;8.662;2022-08-21T15:14:21;4.43;;;1.63;;
21917;SDS011;11123;49.882;8.662;2022-08-21T15:16:52;5.72;;;1.80;;